YAYEYBHI

Guest
Details From YAYE - Ayers Rock (connellan)
To YBHI - Broken Hill
Flight Number -
Tags Generated
Created
Modified
Stats Distance 689 nm / 1,275 km
Max Altitude 0 ft / 0 m
Waypoints 3
Social Downloads 2
Likes 0
Share VATSIM

Download

Looking for another format? Having issues loading an existing format? Contact us
Advertisement - Login to hide

Notes

Generated

Route

YAYE BHI YBHI

ID Type Via Altitude Latitude Longitude Leg Dist Tot Dist Heading (true) Name
O YAYE APT - 0 ft / 0 m -25.17811˚ 130.96656˚ - 0 nm - -
BHI NDB - 0 ft / 0 m -31.99194˚ 141.46833˚ 687 nm 687 nm 129° / 124° BROKEN HILL NDB
O YBHI APT - 0 ft / 0 m -32.00383˚ 141.46654˚ 0 nm 688 nm 187° / 187° -

Altitude Profile

Advertisement - Login to hide

Weather


0- 5 10 15 20 25 30 35+ Temperature / ° C

Clouds and Precipitation
Forecast for 2017-12-18 00:00 UTC. Updated an hour ago

Ground ~20,000 ft ~40,000 ft Winds

YAYE

Details ICAO YAYE (AYQ)
Name Ayers Rock
Region Australia
Timezone Australia/Darwin (UTC+9.5)
Stats Elevation 1,625 ft / 495 m (AMSL)
Location -25.185555° 130.976642°
Runways 1
Magnetic Variation 3.930° E

METAR

YAYE 172000Z AUTO 36007KT 9999 // NCD 32/12 Q1005

Decode

TAF

Not found

Departure Runways

ID Width Length Bearing (true) Bearing (mag) Surface Threshold Offset Overrun Length
13 98 ft / 30 m 8,526 ft / 2,599 m 129.70° 125.77° Asphalt 0 ft / 0 m 0 ft / 0 m
31 98 ft / 30 m 8,526 ft / 2,599 m 309.70° 305.77° Asphalt 0 ft / 0 m 0 ft / 0 m

YBHI

Details ICAO YBHI (BHQ)
Name Broken Hill
Region Australia
Timezone Australia/Broken_Hill (UTC+10.5)
Stats Elevation 958 ft / 292 m (AMSL)
Location -32.005049° 141.470829°
Runways 2
Magnetic Variation 8.448° E

METAR

YBHI 172000Z AUTO 09010KT 9999 // NCD 27/06 Q1009

Decode

TAF

Not found

Destination Runways

ID Width Length Bearing (true) Bearing (mag) Surface Threshold Offset Overrun Length
05 98 ft / 30 m 8,247 ft / 2,514 m 55.76° 47.31° Asphalt 0 ft / 0 m 0 ft / 0 m
14 98 ft / 30 m 3,284 ft / 1,001 m 143.12° 134.67° Dirt 0 ft / 0 m 0 ft / 0 m
23 98 ft / 30 m 8,247 ft / 2,514 m 235.74° 227.29° Asphalt 0 ft / 0 m 0 ft / 0 m
32 98 ft / 30 m 3,284 ft / 1,001 m 323.12° 314.67° Dirt 0 ft / 0 m 0 ft / 0 m

Popular Alternatives